sensor_id;sensor_type;location;lat;lon;timestamp;temperature;humidity
47618;DHT22;33336;36.728;-4.414;2023-02-28T00:03:06;13.90;71.30
47618;DHT22;33336;36.728;-4.414;2023-02-28T00:08:10;13.80;69.30
47618;DHT22;33336;36.728;-4.414;2023-02-28T00:13:15;13.70;68.70
47618;DHT22;33336;36.728;-4.414;2023-02-28T00:18:18;13.50;67.70
47618;DHT22;33336;36.728;-4.414;2023-02-28T00:23:24;13.40;67.00
47618;DHT22;33336;36.728;-4.414;2023-02-28T00:28:27;13.30;66.80
47618;DHT22;33336;36.728;-4.414;2023-02-28T00:33:30;13.30;66.20
47618;DHT22;33336;36.728;-4.414;2023-02-28T00:38:34;13.30;65.90
47618;DHT22;33336;36.728;-4.414;2023-02-28T00:43:39;13.10;65.00
47618;DHT22;33336;36.728;-4.414;2023-02-28T00:48:42;13.00;64.80
47618;DHT22;33336;36.728;-4.414;2023-02-28T00:53:46;12.90;64.60
47618;DHT22;33336;36.728;-4.414;2023-02-28T00:58:49;12.80;64.60
47618;DHT22;33336;36.728;-4.414;2023-02-28T01:03:52;12.80;64.40
47618;DHT22;33336;36.728;-4.414;2023-02-28T01:08:56;12.80;64.30
47618;DHT22;33336;36.728;-4.414;2023-02-28T01:14:00;12.50;64.60
47618;DHT22;33336;36.728;-4.414;2023-02-28T01:19:03;12.50;64.10
47618;DHT22;33336;36.728;-4.414;2023-02-28T01:24:08;12.50;64.00
47618;DHT22;33336;36.728;-4.414;2023-02-28T01:29:10;12.50;64.00
47618;DHT22;33336;36.728;-4.414;2023-02-28T01:34:14;12.40;64.10
47618;DHT22;33336;36.728;-4.414;2023-02-28T01:39:18;12.30;64.20
47618;DHT22;33336;36.728;-4.414;2023-02-28T01:44:59;12.20;64.50
47618;DHT22;33336;36.728;-4.414;2023-02-28T01:50:06;12.00;64.30
47618;DHT22;33336;36.728;-4.414;2023-02-28T01:55:13;11.90;64.50
47618;DHT22;33336;36.728;-4.414;2023-02-28T02:00:19;11.90;64.50
47618;DHT22;33336;36.728;-4.414;2023-02-28T02:05:24;11.90;64.40
47618;DHT22;33336;36.728;-4.414;2023-02-28T02:10:32;11.80;64.60
47618;DHT22;33336;36.728;-4.414;2023-02-28T02:15:41;11.60;64.70
47618;DHT22;33336;36.728;-4.414;2023-02-28T02:26:54;11.50;65.50
47618;DHT22;33336;36.728;-4.414;2023-02-28T02:32:35;11.30;66.10
47618;DHT22;33336;36.728;-4.414;2023-02-28T02:37:49;11.20;66.10
47618;DHT22;33336;36.728;-4.414;2023-02-28T02:42:58;11.30;65.60
47618;DHT22;33336;36.728;-4.414;2023-02-28T02:48:04;10.60;67.40
47618;DHT22;33336;36.728;-4.414;2023-02-28T02:53:11;10.30;67.00
47618;DHT22;33336;36.728;-4.414;2023-02-28T02:58:17;10.10;67.30
47618;DHT22;33336;36.728;-4.414;2023-02-28T03:03:23;10.00;67.20
47618;DHT22;33336;36.728;-4.414;2023-02-28T03:08:34;10.10;66.90
47618;DHT22;33336;36.728;-4.414;2023-02-28T03:14:08;10.40;65.20
47618;DHT22;33336;36.728;-4.414;2023-02-28T03:19:26;10.70;64.00
47618;DHT22;33336;36.728;-4.414;2023-02-28T03:24:40;10.60;64.00
47618;DHT22;33336;36.728;-4.414;2023-02-28T03:29:47;10.60;63.60
47618;DHT22;33336;36.728;-4.414;2023-02-28T03:34:55;10.60;64.10
47618;DHT22;33336;36.728;-4.414;2023-02-28T03:40:05;10.60;63.70
47618;DHT22;33336;36.728;-4.414;2023-02-28T03:45:11;10.60;63.30
47618;DHT22;33336;36.728;-4.414;2023-02-28T03:50:18;10.50;63.00
47618;DHT22;33336;36.728;-4.414;2023-02-28T03:55:24;10.50;63.00
47618;DHT22;33336;36.728;-4.414;2023-02-28T04:00:30;10.40;63.20
47618;DHT22;33336;36.728;-4.414;2023-02-28T04:05:46;10.40;63.30
47618;DHT22;33336;36.728;-4.414;2023-02-28T04:10:55;10.40;63.00
47618;DHT22;33336;36.728;-4.414;2023-02-28T04:15:59;10.40;63.10
47618;DHT22;33336;36.728;-4.414;2023-02-28T04:21:02;10.30;62.90
47618;DHT22;33336;36.728;-4.414;2023-02-28T04:26:06;10.30;62.80
47618;DHT22;33336;36.728;-4.414;2023-02-28T04:31:10;10.30;62.90
47618;DHT22;33336;36.728;-4.414;2023-02-28T04:36:13;10.30;63.40
47618;DHT22;33336;36.728;-4.414;2023-02-28T04:41:21;10.20;63.90
47618;DHT22;33336;36.728;-4.414;2023-02-28T04:46:25;10.00;64.20
47618;DHT22;33336;36.728;-4.414;2023-02-28T04:51:28;9.80;64.90
47618;DHT22;33336;36.728;-4.414;2023-02-28T04:56:32;9.90;64.70
47618;DHT22;33336;36.728;-4.414;2023-02-28T05:01:35;9.90;64.90
47618;DHT22;33336;36.728;-4.414;2023-02-28T05:06:39;9.80;64.80
47618;DHT22;33336;36.728;-4.414;2023-02-28T05:11:43;9.60;64.70
47618;DHT22;33336;36.728;-4.414;2023-02-28T05:16:46;9.50;65.20
47618;DHT22;33336;36.728;-4.414;2023-02-28T05:21:51;9.40;65.20
47618;DHT22;33336;36.728;-4.414;2023-02-28T05:26:56;9.40;65.40
47618;DHT22;33336;36.728;-4.414;2023-02-28T05:31:59;9.30;65.40
47618;DHT22;33336;36.728;-4.414;2023-02-28T05:37:03;9.70;65.00
47618;DHT22;33336;36.728;-4.414;2023-02-28T05:42:07;9.30;66.30
47618;DHT22;33336;36.728;-4.414;2023-02-28T05:47:11;8.90;67.10
47618;DHT22;33336;36.728;-4.414;2023-02-28T05:52:16;8.70;67.80
47618;DHT22;33336;36.728;-4.414;2023-02-28T05:57:21;8.50;68.10
47618;DHT22;33336;36.728;-4.414;2023-02-28T06:02:24;8.40;68.10
47618;DHT22;33336;36.728;-4.414;2023-02-28T06:07:28;8.40;67.70
47618;DHT22;33336;36.728;-4.414;2023-02-28T06:12:32;8.70;66.90
47618;DHT22;33336;36.728;-4.414;2023-02-28T06:17:35;8.60;67.00
47618;DHT22;33336;36.728;-4.414;2023-02-28T06:22:38;8.70;66.40
47618;DHT22;33336;36.728;-4.414;2023-02-28T06:27:42;8.90;65.80
47618;DHT22;33336;36.728;-4.414;2023-02-28T06:32:45;8.70;66.10
47618;DHT22;33336;36.728;-4.414;2023-02-28T06:37:51;8.80;65.80
47618;DHT22;33336;36.728;-4.414;2023-02-28T06:42:55;8.90;66.00
47618;DHT22;33336;36.728;-4.414;2023-02-28T06:47:58;8.90;65.40
47618;DHT22;33336;36.728;-4.414;2023-02-28T06:53:01;8.80;65.20
47618;DHT22;33336;36.728;-4.414;2023-02-28T06:58:05;8.80;65.40
47618;DHT22;33336;36.728;-4.414;2023-02-28T07:03:16;9.00;65.20
47618;DHT22;33336;36.728;-4.414;2023-02-28T07:08:19;9.00;64.40
47618;DHT22;33336;36.728;-4.414;2023-02-28T07:13:24;8.60;64.50
47618;DHT22;33336;36.728;-4.414;2023-02-28T07:18:28;8.60;64.80
47618;DHT22;33336;36.728;-4.414;2023-02-28T07:23:31;8.80;64.50
47618;DHT22;33336;36.728;-4.414;2023-02-28T07:28:35;9.00;64.60
47618;DHT22;33336;36.728;-4.414;2023-02-28T07:33:40;8.80;64.30
47618;DHT22;33336;36.728;-4.414;2023-02-28T07:38:44;9.00;64.30
47618;DHT22;33336;36.728;-4.414;2023-02-28T07:43:53;9.10;64.10
47618;DHT22;33336;36.728;-4.414;2023-02-28T07:48:56;9.30;63.70
47618;DHT22;33336;36.728;-4.414;2023-02-28T07:54:01;9.10;64.20
47618;DHT22;33336;36.728;-4.414;2023-02-28T07:59:05;9.30;64.10
47618;DHT22;33336;36.728;-4.414;2023-02-28T08:04:09;9.30;64.40
47618;DHT22;33336;36.728;-4.414;2023-02-28T08:09:11;9.20;63.70
47618;DHT22;33336;36.728;-4.414;2023-02-28T08:14:17;9.00;64.40
47618;DHT22;33336;36.728;-4.414;2023-02-28T08:19:20;9.10;64.60
47618;DHT22;33336;36.728;-4.414;2023-02-28T08:24:25;9.10;64.50
47618;DHT22;33336;36.728;-4.414;2023-02-28T08:29:29;9.30;64.30
47618;DHT22;33336;36.728;-4.414;2023-02-28T08:34:33;9.50;64.40
47618;DHT22;33336;36.728;-4.414;2023-02-28T08:39:36;9.70;63.70
47618;DHT22;33336;36.728;-4.414;2023-02-28T08:44:41;9.80;62.80
47618;DHT22;33336;36.728;-4.414;2023-02-28T08:49:44;9.90;62.70
47618;DHT22;33336;36.728;-4.414;2023-02-28T08:54:48;10.00;62.90
47618;DHT22;33336;36.728;-4.414;2023-02-28T08:59:52;10.10;62.60
47618;DHT22;33336;36.728;-4.414;2023-02-28T09:04:55;10.30;62.20
47618;DHT22;33336;36.728;-4.414;2023-02-28T09:09:58;10.40;62.60
47618;DHT22;33336;36.728;-4.414;2023-02-28T09:15:03;10.60;62.60
47618;DHT22;33336;36.728;-4.414;2023-02-28T09:20:07;10.70;62.50
47618;DHT22;33336;36.728;-4.414;2023-02-28T09:25:11;10.80;61.20
47618;DHT22;33336;36.728;-4.414;2023-02-28T09:30:16;11.10;61.10
47618;DHT22;33336;36.728;-4.414;2023-02-28T09:35:21;11.40;59.60
47618;DHT22;33336;36.728;-4.414;2023-02-28T09:40:25;11.50;57.10
47618;DHT22;33336;36.728;-4.414;2023-02-28T09:45:33;11.90;57.60
47618;DHT22;33336;36.728;-4.414;2023-02-28T09:50:40;12.20;57.00
47618;DHT22;33336;36.728;-4.414;2023-02-28T09:55:47;12.50;55.90
47618;DHT22;33336;36.728;-4.414;2023-02-28T10:00:58;12.40;56.00
47618;DHT22;33336;36.728;-4.414;2023-02-28T10:06:09;12.40;56.00
47618;DHT22;33336;36.728;-4.414;2023-02-28T10:11:16;12.60;55.50
47618;DHT22;33336;36.728;-4.414;2023-02-28T10:16:27;12.70;55.00
47618;DHT22;33336;36.728;-4.414;2023-02-28T10:21:35;13.10;54.70
47618;DHT22;33336;36.728;-4.414;2023-02-28T10:26:39;13.10;53.80
47618;DHT22;33336;36.728;-4.414;2023-02-28T10:31:46;13.30;53.50
47618;DHT22;33336;36.728;-4.414;2023-02-28T10:36:50;13.40;54.30
47618;DHT22;33336;36.728;-4.414;2023-02-28T10:41:56;14.00;54.30
47618;DHT22;33336;36.728;-4.414;2023-02-28T10:47:01;14.40;52.70
47618;DHT22;33336;36.728;-4.414;2023-02-28T10:52:04;14.50;51.70
47618;DHT22;33336;36.728;-4.414;2023-02-28T10:57:17;14.30;51.90
47618;DHT22;33336;36.728;-4.414;2023-02-28T11:02:32;14.40;51.80
47618;DHT22;33336;36.728;-4.414;2023-02-28T11:07:38;14.50;51.20
47618;DHT22;33336;36.728;-4.414;2023-02-28T11:12:42;14.60;51.30
47618;DHT22;33336;36.728;-4.414;2023-02-28T11:17:53;14.60;51.50
47618;DHT22;33336;36.728;-4.414;2023-02-28T11:22:57;15.20;51.90
47618;DHT22;33336;36.728;-4.414;2023-02-28T11:28:06;15.50;52.30
47618;DHT22;33336;36.728;-4.414;2023-02-28T11:33:27;15.60;51.40
47618;DHT22;33336;36.728;-4.414;2023-02-28T11:38:34;15.10;51.60
47618;DHT22;33336;36.728;-4.414;2023-02-28T11:43:47;15.60;51.00
47618;DHT22;33336;36.728;-4.414;2023-02-28T11:49:03;14.80;51.40
47618;DHT22;33336;36.728;-4.414;2023-02-28T11:54:24;15.60;51.50
47618;DHT22;33336;36.728;-4.414;2023-02-28T11:59:45;15.60;50.80
47618;DHT22;33336;36.728;-4.414;2023-02-28T12:04:57;16.50;51.10
47618;DHT22;33336;36.728;-4.414;2023-02-28T12:10:10;16.00;51.70
47618;DHT22;33336;36.728;-4.414;2023-02-28T12:15:28;16.10;51.00
47618;DHT22;33336;36.728;-4.414;2023-02-28T12:20:40;16.10;50.70
47618;DHT22;33336;36.728;-4.414;2023-02-28T12:25:58;16.70;50.80
47618;DHT22;33336;36.728;-4.414;2023-02-28T12:31:08;16.60;51.10
47618;DHT22;33336;36.728;-4.414;2023-02-28T12:36:16;17.10;50.30
47618;DHT22;33336;36.728;-4.414;2023-02-28T12:41:27;17.40;50.20
47618;DHT22;33336;36.728;-4.414;2023-02-28T12:46:35;17.10;50.00
47618;DHT22;33336;36.728;-4.414;2023-02-28T12:51:41;17.00;50.60
47618;DHT22;33336;36.728;-4.414;2023-02-28T12:56:50;17.40;50.90
47618;DHT22;33336;36.728;-4.414;2023-02-28T13:02:25;17.70;50.30
47618;DHT22;33336;36.728;-4.414;2023-02-28T13:07:58;18.00;50.10
47618;DHT22;33336;36.728;-4.414;2023-02-28T13:13:04;18.20;49.80
47618;DHT22;33336;36.728;-4.414;2023-02-28T13:18:29;18.40;50.40
47618;DHT22;33336;36.728;-4.414;2023-02-28T13:23:57;18.20;49.80
47618;DHT22;33336;36.728;-4.414;2023-02-28T13:29:02;18.20;50.30
47618;DHT22;33336;36.728;-4.414;2023-02-28T13:34:14;18.00;49.70
47618;DHT22;33336;36.728;-4.414;2023-02-28T13:39:48;18.10;49.90
47618;DHT22;33336;36.728;-4.414;2023-02-28T13:45:22;18.00;49.40
47618;DHT22;33336;36.728;-4.414;2023-02-28T13:50:32;18.10;50.20
47618;DHT22;33336;36.728;-4.414;2023-02-28T13:55:38;18.20;49.90
47618;DHT22;33336;36.728;-4.414;2023-02-28T14:01:00;18.00;50.40
47618;DHT22;33336;36.728;-4.414;2023-02-28T14:06:16;18.20;49.40
47618;DHT22;33336;36.728;-4.414;2023-02-28T14:11:29;18.40;48.80
47618;DHT22;33336;36.728;-4.414;2023-02-28T14:16:39;18.10;49.10
47618;DHT22;33336;36.728;-4.414;2023-02-28T14:21:56;17.70;49.40
47618;DHT22;33336;36.728;-4.414;2023-02-28T14:27:15;18.40;49.10
47618;DHT22;33336;36.728;-4.414;2023-02-28T14:32:26;18.90;48.70
47618;DHT22;33336;36.728;-4.414;2023-02-28T14:37:33;19.50;49.30
47618;DHT22;33336;36.728;-4.414;2023-02-28T14:42:47;19.60;49.10
47618;DHT22;33336;36.728;-4.414;2023-02-28T14:47:51;20.30;48.40
47618;DHT22;33336;36.728;-4.414;2023-02-28T14:52:55;19.60;47.80
47618;DHT22;33336;36.728;-4.414;2023-02-28T14:58:01;19.30;48.30
47618;DHT22;33336;36.728;-4.414;2023-02-28T15:03:18;20.70;47.50
47618;DHT22;33336;36.728;-4.414;2023-02-28T15:08:21;20.50;47.50
47618;DHT22;33336;36.728;-4.414;2023-02-28T15:13:31;20.80;47.10
47618;DHT22;33336;36.728;-4.414;2023-02-28T15:18:44;21.20;47.20
47618;DHT22;33336;36.728;-4.414;2023-02-28T15:23:54;22.40;46.40
47618;DHT22;33336;36.728;-4.414;2023-02-28T15:29:04;21.00;46.70
47618;DHT22;33336;36.728;-4.414;2023-02-28T15:34:18;23.20;47.00
47618;DHT22;33336;36.728;-4.414;2023-02-28T15:39:25;24.20;45.80
47618;DHT22;33336;36.728;-4.414;2023-02-28T15:44:34;23.00;46.00
47618;DHT22;33336;36.728;-4.414;2023-02-28T15:49:44;23.30;45.80
47618;DHT22;33336;36.728;-4.414;2023-02-28T15:54:49;23.80;46.60
47618;DHT22;33336;36.728;-4.414;2023-02-28T15:59:55;26.70;46.40
47618;DHT22;33336;36.728;-4.414;2023-02-28T16:05:12;27.60;44.80
47618;DHT22;33336;36.728;-4.414;2023-02-28T16:10:21;26.50;44.30
47618;DHT22;33336;36.728;-4.414;2023-02-28T16:15:33;25.70;43.80
47618;DHT22;33336;36.728;-4.414;2023-02-28T16:20:42;24.70;44.70
47618;DHT22;33336;36.728;-4.414;2023-02-28T16:25:46;24.80;44.40
47618;DHT22;33336;36.728;-4.414;2023-02-28T16:30:53;26.30;43.60
47618;DHT22;33336;36.728;-4.414;2023-02-28T16:35:56;25.10;43.30
47618;DHT22;33336;36.728;-4.414;2023-02-28T16:41:00;25.50;43.80
47618;DHT22;33336;36.728;-4.414;2023-02-28T16:46:05;25.70;43.20
47618;DHT22;33336;36.728;-4.414;2023-02-28T16:51:11;26.80;43.60
47618;DHT22;33336;36.728;-4.414;2023-02-28T16:56:18;25.60;42.60
47618;DHT22;33336;36.728;-4.414;2023-02-28T17:01:23;25.40;42.40
47618;DHT22;33336;36.728;-4.414;2023-02-28T17:06:27;25.20;42.80
47618;DHT22;33336;36.728;-4.414;2023-02-28T17:11:30;25.70;44.20
47618;DHT22;33336;36.728;-4.414;2023-02-28T17:16:37;24.60;43.20
47618;DHT22;33336;36.728;-4.414;2023-02-28T17:21:43;24.50;42.80
47618;DHT22;33336;36.728;-4.414;2023-02-28T17:26:46;24.70;44.90
47618;DHT22;33336;36.728;-4.414;2023-02-28T17:31:51;24.60;43.00
47618;DHT22;33336;36.728;-4.414;2023-02-28T17:36:54;22.70;42.70
47618;DHT22;33336;36.728;-4.414;2023-02-28T17:41:57;23.70;43.80
47618;DHT22;33336;36.728;-4.414;2023-02-28T17:47:02;22.80;44.10
47618;DHT22;33336;36.728;-4.414;2023-02-28T17:52:05;23.10;44.40
47618;DHT22;33336;36.728;-4.414;2023-02-28T17:57:11;21.70;45.30
47618;DHT22;33336;36.728;-4.414;2023-02-28T18:02:16;22.00;44.60
47618;DHT22;33336;36.728;-4.414;2023-02-28T18:07:20;22.80;45.10
47618;DHT22;33336;36.728;-4.414;2023-02-28T18:12:24;21.40;45.30
47618;DHT22;33336;36.728;-4.414;2023-02-28T18:17:29;21.00;45.60
47618;DHT22;33336;36.728;-4.414;2023-02-28T18:22:32;19.80;46.30
47618;DHT22;33336;36.728;-4.414;2023-02-28T18:27:36;19.20;47.10
47618;DHT22;33336;36.728;-4.414;2023-02-28T18:32:40;18.10;48.10
47618;DHT22;33336;36.728;-4.414;2023-02-28T18:37:43;18.70;47.90
47618;DHT22;33336;36.728;-4.414;2023-02-28T18:42:46;18.80;48.10
47618;DHT22;33336;36.728;-4.414;2023-02-28T18:47:52;18.80;48.00
47618;DHT22;33336;36.728;-4.414;2023-02-28T18:52:55;18.60;47.90
47618;DHT22;33336;36.728;-4.414;2023-02-28T18:57:58;18.20;47.90
47618;DHT22;33336;36.728;-4.414;2023-02-28T19:03:03;18.00;48.00
47618;DHT22;33336;36.728;-4.414;2023-02-28T19:08:06;17.70;48.00
47618;DHT22;33336;36.728;-4.414;2023-02-28T19:13:09;17.30;48.30
47618;DHT22;33336;36.728;-4.414;2023-02-28T19:18:14;16.80;48.20
47618;DHT22;33336;36.728;-4.414;2023-02-28T19:23:17;16.30;48.80
47618;DHT22;33336;36.728;-4.414;2023-02-28T19:28:20;16.20;48.80
47618;DHT22;33336;36.728;-4.414;2023-02-28T19:33:24;15.60;49.70
47618;DHT22;33336;36.728;-4.414;2023-02-28T19:38:27;15.70;49.60
47618;DHT22;33336;36.728;-4.414;2023-02-28T19:43:30;15.50;49.90
47618;DHT22;33336;36.728;-4.414;2023-02-28T19:48:36;15.40;50.10
47618;DHT22;33336;36.728;-4.414;2023-02-28T19:53:40;15.30;50.00
47618;DHT22;33336;36.728;-4.414;2023-02-28T19:58:43;15.00;50.30
47618;DHT22;33336;36.728;-4.414;2023-02-28T20:03:48;14.80;50.90
47618;DHT22;33336;36.728;-4.414;2023-02-28T20:08:53;14.60;51.20
47618;DHT22;33336;36.728;-4.414;2023-02-28T20:13:56;14.10;51.40
47618;DHT22;33336;36.728;-4.414;2023-02-28T20:19:03;14.20;51.70
47618;DHT22;33336;36.728;-4.414;2023-02-28T20:24:06;14.10;51.80
47618;DHT22;33336;36.728;-4.414;2023-02-28T20:29:10;13.60;52.30
47618;DHT22;33336;36.728;-4.414;2023-02-28T20:34:15;13.80;52.30
47618;DHT22;33336;36.728;-4.414;2023-02-28T20:39:18;13.60;52.60
47618;DHT22;33336;36.728;-4.414;2023-02-28T20:44:22;13.50;52.90
47618;DHT22;33336;36.728;-4.414;2023-02-28T20:49:28;13.60;53.20
47618;DHT22;33336;36.728;-4.414;2023-02-28T20:54:31;13.50;53.30
47618;DHT22;33336;36.728;-4.414;2023-02-28T20:59:35;13.30;53.90
47618;DHT22;33336;36.728;-4.414;2023-02-28T21:04:41;13.10;53.90
47618;DHT22;33336;36.728;-4.414;2023-02-28T21:09:44;13.00;54.10
47618;DHT22;33336;36.728;-4.414;2023-02-28T21:14:48;13.20;53.90
47618;DHT22;33336;36.728;-4.414;2023-02-28T21:19:53;13.20;54.20
47618;DHT22;33336;36.728;-4.414;2023-02-28T21:24:55;13.00;54.00
47618;DHT22;33336;36.728;-4.414;2023-02-28T21:29:59;12.90;54.50
47618;DHT22;33336;36.728;-4.414;2023-02-28T21:35:04;13.00;54.70
47618;DHT22;33336;36.728;-4.414;2023-02-28T21:40:08;12.70;55.20
47618;DHT22;33336;36.728;-4.414;2023-02-28T21:45:11;12.60;55.40
47618;DHT22;33336;36.728;-4.414;2023-02-28T21:50:17;12.40;55.60
47618;DHT22;33336;36.728;-4.414;2023-02-28T21:55:20;12.40;55.80
47618;DHT22;33336;36.728;-4.414;2023-02-28T22:00:23;11.90;56.40
47618;DHT22;33336;36.728;-4.414;2023-02-28T22:05:28;11.80;56.50
47618;DHT22;33336;36.728;-4.414;2023-02-28T22:10:33;11.90;56.40
47618;DHT22;33336;36.728;-4.414;2023-02-28T22:15:36;12.20;56.10
47618;DHT22;33336;36.728;-4.414;2023-02-28T22:20:41;12.10;55.80
47618;DHT22;33336;36.728;-4.414;2023-02-28T22:25:43;12.10;56.10
47618;DHT22;33336;36.728;-4.414;2023-02-28T22:30:46;12.30;56.00
47618;DHT22;33336;36.728;-4.414;2023-02-28T22:35:51;11.80;56.60
47618;DHT22;33336;36.728;-4.414;2023-02-28T22:40:55;11.70;57.00
47618;DHT22;33336;36.728;-4.414;2023-02-28T22:46:00;11.70;57.00
47618;DHT22;33336;36.728;-4.414;2023-02-28T22:51:08;11.60;57.20
47618;DHT22;33336;36.728;-4.414;2023-02-28T22:56:13;11.50;57.30
47618;DHT22;33336;36.728;-4.414;2023-02-28T23:01:18;11.60;57.30
47618;DHT22;33336;36.728;-4.414;2023-02-28T23:06:25;11.70;57.00
47618;DHT22;33336;36.728;-4.414;2023-02-28T23:11:31;11.70;57.40
47618;DHT22;33336;36.728;-4.414;2023-02-28T23:16:37;11.60;57.40
47618;DHT22;33336;36.728;-4.414;2023-02-28T23:21:42;11.70;57.00
47618;DHT22;33336;36.728;-4.414;2023-02-28T23:26:47;11.70;57.40
47618;DHT22;33336;36.728;-4.414;2023-02-28T23:31:50;11.50;57.90
47618;DHT22;33336;36.728;-4.414;2023-02-28T23:36:57;11.30;57.90
47618;DHT22;33336;36.728;-4.414;2023-02-28T23:42:00;11.50;57.70
47618;DHT22;33336;36.728;-4.414;2023-02-28T23:47:03;11.60;57.30
47618;DHT22;33336;36.728;-4.414;2023-02-28T23:52:09;11.40;57.80
47618;DHT22;33336;36.728;-4.414;2023-02-28T23:57:12;11.50;57.80
